sensor_id;sensor_type;location;lat;lon;timestamp;P1;durP1;ratioP1;P2;durP2;ratioP2
54929;SDS011;40833;53.238;6.576;2023-04-03T00:02:17;0.83;;;0.20;;
54929;SDS011;40833;53.238;6.576;2023-04-03T00:04:43;5.57;;;0.50;;
54929;SDS011;40833;53.238;6.576;2023-04-03T00:07:09;0.97;;;0.40;;
54929;SDS011;40833;53.238;6.576;2023-04-03T00:09:37;1.50;;;0.20;;
54929;SDS011;40833;53.238;6.576;2023-04-03T00:12:03;1.83;;;0.50;;
54929;SDS011;40833;53.238;6.576;2023-04-03T00:14:28;1.67;;;0.30;;
54929;SDS011;40833;53.238;6.576;2023-04-03T00:16:54;2.17;;;0.50;;
54929;SDS011;40833;53.238;6.576;2023-04-03T00:19:20;1.80;;;0.33;;
54929;SDS011;40833;53.238;6.576;2023-04-03T00:21:46;3.93;;;1.10;;
54929;SDS011;40833;53.238;6.576;2023-04-03T00:24:11;3.37;;;0.50;;
54929;SDS011;40833;53.238;6.576;2023-04-03T00:26:37;2.93;;;0.50;;
54929;SDS011;40833;53.238;6.576;2023-04-03T00:29:03;8.77;;;0.40;;
54929;SDS011;40833;53.238;6.576;2023-04-03T00:31:28;2.67;;;0.20;;
54929;SDS011;40833;53.238;6.576;2023-04-03T00:33:54;2.57;;;0.53;;
54929;SDS011;40833;53.238;6.576;2023-04-03T00:36:20;2.73;;;0.40;;
54929;SDS011;40833;53.238;6.576;2023-04-03T00:38:46;1.97;;;0.50;;
54929;SDS011;40833;53.238;6.576;2023-04-03T00:41:11;0.70;;;0.20;;
54929;SDS011;40833;53.238;6.576;2023-04-03T00:43:37;5.33;;;0.60;;
54929;SDS011;40833;53.238;6.576;2023-04-03T00:46:03;2.00;;;0.60;;
54929;SDS011;40833;53.238;6.576;2023-04-03T00:48:31;3.90;;;0.60;;
54929;SDS011;40833;53.238;6.576;2023-04-03T00:51:03;2.67;;;0.50;;
54929;SDS011;40833;53.238;6.576;2023-04-03T00:53:37;3.13;;;0.43;;
54929;SDS011;40833;53.238;6.576;2023-04-03T00:56:07;0.83;;;0.43;;
54929;SDS011;40833;53.238;6.576;2023-04-03T00:58:37;7.40;;;0.30;;
54929;SDS011;40833;53.238;6.576;2023-04-03T01:01:07;3.35;;;0.47;;
54929;SDS011;40833;53.238;6.576;2023-04-03T01:03:36;1.43;;;0.40;;
54929;SDS011;40833;53.238;6.576;2023-04-03T01:06:02;5.47;;;0.60;;
54929;SDS011;40833;53.238;6.576;2023-04-03T01:08:28;3.80;;;0.40;;
54929;SDS011;40833;53.238;6.576;2023-04-03T01:10:55;1.33;;;0.33;;
54929;SDS011;40833;53.238;6.576;2023-04-03T01:13:31;4.03;;;0.50;;
54929;SDS011;40833;53.238;6.576;2023-04-03T01:16:01;4.87;;;0.60;;
54929;SDS011;40833;53.238;6.576;2023-04-03T01:18:28;9.30;;;0.90;;
54929;SDS011;40833;53.238;6.576;2023-04-03T01:24:40;1.57;;;0.50;;
54929;SDS011;40833;53.238;6.576;2023-04-03T01:26:35;2.80;;;0.60;;
54929;SDS011;40833;53.238;6.576;2023-04-03T01:29:01;1.77;;;0.60;;
54929;SDS011;40833;53.238;6.576;2023-04-03T01:31:31;4.97;;;0.93;;
54929;SDS011;40833;53.238;6.576;2023-04-03T01:34:12;5.73;;;0.80;;
54929;SDS011;40833;53.238;6.576;2023-04-03T01:36:38;5.27;;;0.53;;
54929;SDS011;40833;53.238;6.576;2023-04-03T01:39:05;4.00;;;0.70;;
54929;SDS011;40833;53.238;6.576;2023-04-03T01:41:31;7.73;;;0.67;;
54929;SDS011;40833;53.238;6.576;2023-04-03T01:43:57;5.20;;;0.97;;
54929;SDS011;40833;53.238;6.576;2023-04-03T01:46:23;1.53;;;0.57;;
54929;SDS011;40833;53.238;6.576;2023-04-03T01:48:49;3.50;;;0.80;;
54929;SDS011;40833;53.238;6.576;2023-04-03T01:51:15;4.90;;;0.83;;
54929;SDS011;40833;53.238;6.576;2023-04-03T01:53:41;3.27;;;0.60;;
54929;SDS011;40833;53.238;6.576;2023-04-03T01:56:08;4.00;;;0.70;;
54929;SDS011;40833;53.238;6.576;2023-04-03T01:58:34;3.00;;;0.60;;
54929;SDS011;40833;53.238;6.576;2023-04-03T02:01:00;7.53;;;0.70;;
54929;SDS011;40833;53.238;6.576;2023-04-03T02:03:26;5.80;;;0.67;;
54929;SDS011;40833;53.238;6.576;2023-04-03T02:05:52;2.73;;;0.70;;
54929;SDS011;40833;53.238;6.576;2023-04-03T02:08:18;3.70;;;1.00;;
54929;SDS011;40833;53.238;6.576;2023-04-03T02:10:46;6.80;;;0.83;;
54929;SDS011;40833;53.238;6.576;2023-04-03T02:13:12;5.67;;;0.70;;
54929;SDS011;40833;53.238;6.576;2023-04-03T02:15:39;3.13;;;0.70;;
54929;SDS011;40833;53.238;6.576;2023-04-03T02:18:05;7.10;;;0.67;;
54929;SDS011;40833;53.238;6.576;2023-04-03T02:20:31;2.00;;;0.70;;
54929;SDS011;40833;53.238;6.576;2023-04-03T02:22:58;5.70;;;1.00;;
54929;SDS011;40833;53.238;6.576;2023-04-03T02:25:24;3.10;;;0.60;;
54929;SDS011;40833;53.238;6.576;2023-04-03T02:27:51;2.73;;;1.13;;
54929;SDS011;40833;53.238;6.576;2023-04-03T02:30:17;5.20;;;0.93;;
54929;SDS011;40833;53.238;6.576;2023-04-03T02:32:43;5.73;;;0.73;;
54929;SDS011;40833;53.238;6.576;2023-04-03T02:35:10;3.80;;;1.03;;
54929;SDS011;40833;53.238;6.576;2023-04-03T02:37:36;1.97;;;0.70;;
54929;SDS011;40833;53.238;6.576;2023-04-03T02:40:03;3.50;;;0.93;;
54929;SDS011;40833;53.238;6.576;2023-04-03T02:42:29;6.37;;;1.70;;
54929;SDS011;40833;53.238;6.576;2023-04-03T02:44:55;7.07;;;0.80;;
54929;SDS011;40833;53.238;6.576;2023-04-03T02:47:21;8.03;;;0.90;;
54929;SDS011;40833;53.238;6.576;2023-04-03T02:49:47;6.80;;;0.80;;
54929;SDS011;40833;53.238;6.576;2023-04-03T02:52:13;7.23;;;0.93;;
54929;SDS011;40833;53.238;6.576;2023-04-03T02:54:39;10.17;;;1.67;;
54929;SDS011;40833;53.238;6.576;2023-04-03T02:57:06;4.33;;;0.87;;
54929;SDS011;40833;53.238;6.576;2023-04-03T02:59:35;1.43;;;0.70;;
54929;SDS011;40833;53.238;6.576;2023-04-03T03:02:02;3.43;;;0.90;;
54929;SDS011;40833;53.238;6.576;2023-04-03T03:04:27;4.23;;;0.60;;
54929;SDS011;40833;53.238;6.576;2023-04-03T03:06:53;4.93;;;0.90;;
54929;SDS011;40833;53.238;6.576;2023-04-03T03:09:19;4.67;;;0.90;;
54929;SDS011;40833;53.238;6.576;2023-04-03T03:11:45;7.53;;;0.97;;
54929;SDS011;40833;53.238;6.576;2023-04-03T03:14:11;7.20;;;1.20;;
54929;SDS011;40833;53.238;6.576;2023-04-03T03:16:37;4.87;;;0.70;;
54929;SDS011;40833;53.238;6.576;2023-04-03T03:19:03;7.00;;;1.20;;
54929;SDS011;40833;53.238;6.576;2023-04-03T03:21:29;5.10;;;0.87;;
54929;SDS011;40833;53.238;6.576;2023-04-03T03:23:55;7.80;;;1.30;;
54929;SDS011;40833;53.238;6.576;2023-04-03T03:26:21;6.00;;;0.70;;
54929;SDS011;40833;53.238;6.576;2023-04-03T03:28:47;4.30;;;0.90;;
54929;SDS011;40833;53.238;6.576;2023-04-03T03:31:13;4.20;;;1.43;;
54929;SDS011;40833;53.238;6.576;2023-04-03T03:33:40;9.00;;;1.40;;
54929;SDS011;40833;53.238;6.576;2023-04-03T03:36:06;4.00;;;1.10;;
54929;SDS011;40833;53.238;6.576;2023-04-03T03:38:32;9.37;;;1.47;;
54929;SDS011;40833;53.238;6.576;2023-04-03T03:40:58;5.43;;;1.37;;
54929;SDS011;40833;53.238;6.576;2023-04-03T03:43:24;8.10;;;1.13;;
54929;SDS011;40833;53.238;6.576;2023-04-03T03:45:51;6.60;;;1.30;;
54929;SDS011;40833;53.238;6.576;2023-04-03T03:48:18;3.80;;;1.27;;
54929;SDS011;40833;53.238;6.576;2023-04-03T03:50:44;9.17;;;1.47;;
54929;SDS011;40833;53.238;6.576;2023-04-03T03:53:10;5.37;;;1.30;;
54929;SDS011;40833;53.238;6.576;2023-04-03T03:55:36;11.17;;;1.43;;
54929;SDS011;40833;53.238;6.576;2023-04-03T03:58:02;6.37;;;1.27;;
54929;SDS011;40833;53.238;6.576;2023-04-03T04:00:29;4.60;;;1.60;;
54929;SDS011;40833;53.238;6.576;2023-04-03T04:02:55;9.77;;;1.33;;
54929;SDS011;40833;53.238;6.576;2023-04-03T04:05:22;8.43;;;1.70;;
54929;SDS011;40833;53.238;6.576;2023-04-03T04:07:48;4.67;;;1.60;;
54929;SDS011;40833;53.238;6.576;2023-04-03T04:10:14;3.90;;;1.53;;
54929;SDS011;40833;53.238;6.576;2023-04-03T04:12:40;7.77;;;1.80;;
54929;SDS011;40833;53.238;6.576;2023-04-03T04:15:06;3.73;;;1.33;;
54929;SDS011;40833;53.238;6.576;2023-04-03T04:17:32;7.27;;;1.60;;
54929;SDS011;40833;53.238;6.576;2023-04-03T04:20:00;9.27;;;1.90;;
54929;SDS011;40833;53.238;6.576;2023-04-03T04:22:26;4.93;;;1.10;;
54929;SDS011;40833;53.238;6.576;2023-04-03T04:24:52;6.77;;;1.37;;
54929;SDS011;40833;53.238;6.576;2023-04-03T04:27:18;7.97;;;1.63;;
54929;SDS011;40833;53.238;6.576;2023-04-03T04:29:44;4.77;;;1.30;;
54929;SDS011;40833;53.238;6.576;2023-04-03T04:32:10;6.97;;;1.57;;
54929;SDS011;40833;53.238;6.576;2023-04-03T04:34:36;5.67;;;1.53;;
54929;SDS011;40833;53.238;6.576;2023-04-03T04:37:02;5.53;;;1.57;;
54929;SDS011;40833;53.238;6.576;2023-04-03T04:39:29;12.23;;;2.23;;
54929;SDS011;40833;53.238;6.576;2023-04-03T04:41:55;7.13;;;1.73;;
54929;SDS011;40833;53.238;6.576;2023-04-03T04:44:21;9.67;;;2.00;;
54929;SDS011;40833;53.238;6.576;2023-04-03T04:46:47;8.43;;;2.17;;
54929;SDS011;40833;53.238;6.576;2023-04-03T04:49:13;9.73;;;2.03;;
54929;SDS011;40833;53.238;6.576;2023-04-03T04:51:39;8.27;;;2.40;;
54929;SDS011;40833;53.238;6.576;2023-04-03T04:54:05;8.67;;;2.33;;
54929;SDS011;40833;53.238;6.576;2023-04-03T04:56:31;7.87;;;2.07;;
54929;SDS011;40833;53.238;6.576;2023-04-03T04:58:57;9.30;;;2.23;;
54929;SDS011;40833;53.238;6.576;2023-04-03T05:01:23;4.77;;;2.00;;
54929;SDS011;40833;53.238;6.576;2023-04-03T05:03:49;11.90;;;1.97;;
54929;SDS011;40833;53.238;6.576;2023-04-03T05:06:15;10.83;;;2.27;;
54929;SDS011;40833;53.238;6.576;2023-04-03T05:08:41;8.07;;;2.93;;
54929;SDS011;40833;53.238;6.576;2023-04-03T05:11:07;7.90;;;2.57;;
54929;SDS011;40833;53.238;6.576;2023-04-03T05:13:33;5.43;;;2.00;;
54929;SDS011;40833;53.238;6.576;2023-04-03T05:16:00;13.77;;;3.00;;
54929;SDS011;40833;53.238;6.576;2023-04-03T05:18:26;8.97;;;2.30;;
54929;SDS011;40833;53.238;6.576;2023-04-03T05:20:52;11.23;;;2.50;;
54929;SDS011;40833;53.238;6.576;2023-04-03T05:23:18;7.37;;;2.40;;
54929;SDS011;40833;53.238;6.576;2023-04-03T05:25:44;7.03;;;1.90;;
54929;SDS011;40833;53.238;6.576;2023-04-03T05:28:12;8.33;;;2.10;;
54929;SDS011;40833;53.238;6.576;2023-04-03T05:30:38;12.20;;;2.60;;
54929;SDS011;40833;53.238;6.576;2023-04-03T05:33:04;7.83;;;2.60;;
54929;SDS011;40833;53.238;6.576;2023-04-03T05:35:31;12.47;;;2.77;;
54929;SDS011;40833;53.238;6.576;2023-04-03T05:37:57;13.40;;;3.17;;
54929;SDS011;40833;53.238;6.576;2023-04-03T05:40:23;7.10;;;2.70;;
54929;SDS011;40833;53.238;6.576;2023-04-03T05:42:49;8.20;;;2.87;;
54929;SDS011;40833;53.238;6.576;2023-04-03T05:45:15;8.20;;;2.77;;
54929;SDS011;40833;53.238;6.576;2023-04-03T05:47:41;9.03;;;2.77;;
54929;SDS011;40833;53.238;6.576;2023-04-03T05:50:08;15.37;;;2.50;;
54929;SDS011;40833;53.238;6.576;2023-04-03T05:52:35;8.63;;;2.87;;
54929;SDS011;40833;53.238;6.576;2023-04-03T05:55:03;11.63;;;3.00;;
54929;SDS011;40833;53.238;6.576;2023-04-03T05:57:29;7.30;;;2.57;;
54929;SDS011;40833;53.238;6.576;2023-04-03T05:59:55;15.00;;;2.43;;
54929;SDS011;40833;53.238;6.576;2023-04-03T06:02:22;8.23;;;2.00;;
54929;SDS011;40833;53.238;6.576;2023-04-03T06:04:49;10.90;;;2.77;;
54929;SDS011;40833;53.238;6.576;2023-04-03T06:07:17;8.40;;;2.67;;
54929;SDS011;40833;53.238;6.576;2023-04-03T06:09:46;5.47;;;2.30;;
54929;SDS011;40833;53.238;6.576;2023-04-03T06:12:12;8.20;;;2.30;;
54929;SDS011;40833;53.238;6.576;2023-04-03T06:14:38;8.77;;;2.90;;
54929;SDS011;40833;53.238;6.576;2023-04-03T06:17:04;10.70;;;2.77;;
54929;SDS011;40833;53.238;6.576;2023-04-03T06:19:31;12.53;;;2.80;;
54929;SDS011;40833;53.238;6.576;2023-04-03T06:21:57;4.90;;;2.67;;
54929;SDS011;40833;53.238;6.576;2023-04-03T06:24:23;14.77;;;3.20;;
54929;SDS011;40833;53.238;6.576;2023-04-03T06:26:50;9.13;;;2.63;;
54929;SDS011;40833;53.238;6.576;2023-04-03T06:29:17;9.03;;;2.43;;
54929;SDS011;40833;53.238;6.576;2023-04-03T06:31:44;8.50;;;2.30;;
54929;SDS011;40833;53.238;6.576;2023-04-03T06:34:11;11.23;;;2.67;;
54929;SDS011;40833;53.238;6.576;2023-04-03T06:36:37;7.73;;;2.43;;
54929;SDS011;40833;53.238;6.576;2023-04-03T06:39:03;13.80;;;2.63;;
54929;SDS011;40833;53.238;6.576;2023-04-03T06:41:29;5.13;;;2.17;;
54929;SDS011;40833;53.238;6.576;2023-04-03T06:43:55;11.63;;;2.90;;
54929;SDS011;40833;53.238;6.576;2023-04-03T06:46:23;13.67;;;3.37;;
54929;SDS011;40833;53.238;6.576;2023-04-03T06:48:49;8.40;;;2.53;;
54929;SDS011;40833;53.238;6.576;2023-04-03T06:51:20;11.17;;;2.60;;
54929;SDS011;40833;53.238;6.576;2023-04-03T06:53:47;10.38;;;2.63;;
54929;SDS011;40833;53.238;6.576;2023-04-03T06:56:14;10.07;;;2.43;;
54929;SDS011;40833;53.238;6.576;2023-04-03T06:58:41;8.60;;;2.87;;
54929;SDS011;40833;53.238;6.576;2023-04-03T07:01:08;6.30;;;2.17;;
54929;SDS011;40833;53.238;6.576;2023-04-03T07:03:36;7.27;;;1.70;;
54929;SDS011;40833;53.238;6.576;2023-04-03T07:06:03;13.27;;;2.97;;
54929;SDS011;40833;53.238;6.576;2023-04-03T07:08:30;14.33;;;2.27;;
54929;SDS011;40833;53.238;6.576;2023-04-03T07:10:56;16.13;;;2.80;;
54929;SDS011;40833;53.238;6.576;2023-04-03T07:13:22;14.13;;;1.70;;
54929;SDS011;40833;53.238;6.576;2023-04-03T07:15:48;10.37;;;1.87;;
54929;SDS011;40833;53.238;6.576;2023-04-03T07:18:15;7.40;;;2.57;;
54929;SDS011;40833;53.238;6.576;2023-04-03T07:20:42;5.50;;;2.10;;
54929;SDS011;40833;53.238;6.576;2023-04-03T07:23:08;8.83;;;1.87;;
54929;SDS011;40833;53.238;6.576;2023-04-03T07:25:34;9.60;;;2.30;;
54929;SDS011;40833;53.238;6.576;2023-04-03T07:28:00;12.57;;;2.57;;
54929;SDS011;40833;53.238;6.576;2023-04-03T07:30:26;7.03;;;1.70;;
54929;SDS011;40833;53.238;6.576;2023-04-03T07:32:53;6.73;;;2.27;;
54929;SDS011;40833;53.238;6.576;2023-04-03T07:35:19;14.30;;;2.40;;
54929;SDS011;40833;53.238;6.576;2023-04-03T07:37:45;8.47;;;1.80;;
54929;SDS011;40833;53.238;6.576;2023-04-03T07:40:11;5.33;;;1.60;;
54929;SDS011;40833;53.238;6.576;2023-04-03T07:42:37;8.13;;;2.00;;
54929;SDS011;40833;53.238;6.576;2023-04-03T07:45:04;7.57;;;1.90;;
54929;SDS011;40833;53.238;6.576;2023-04-03T07:47:30;7.53;;;1.90;;
54929;SDS011;40833;53.238;6.576;2023-04-03T07:49:56;6.60;;;1.70;;
54929;SDS011;40833;53.238;6.576;2023-04-03T07:52:23;6.17;;;1.40;;
54929;SDS011;40833;53.238;6.576;2023-04-03T07:54:49;5.87;;;1.47;;
54929;SDS011;40833;53.238;6.576;2023-04-03T07:57:15;7.07;;;1.73;;
54929;SDS011;40833;53.238;6.576;2023-04-03T07:59:41;4.43;;;1.47;;
54929;SDS011;40833;53.238;6.576;2023-04-03T08:02:11;6.43;;;1.30;;
54929;SDS011;40833;53.238;6.576;2023-04-03T08:04:37;7.73;;;1.50;;
54929;SDS011;40833;53.238;6.576;2023-04-03T08:07:03;3.93;;;1.30;;
54929;SDS011;40833;53.238;6.576;2023-04-03T08:09:29;8.73;;;1.03;;
54929;SDS011;40833;53.238;6.576;2023-04-03T08:11:56;9.50;;;1.43;;
54929;SDS011;40833;53.238;6.576;2023-04-03T08:14:22;6.30;;;0.97;;
54929;SDS011;40833;53.238;6.576;2023-04-03T08:16:48;5.50;;;1.30;;
54929;SDS011;40833;53.238;6.576;2023-04-03T08:19:15;3.90;;;0.80;;
54929;SDS011;40833;53.238;6.576;2023-04-03T08:21:43;7.23;;;1.07;;
54929;SDS011;40833;53.238;6.576;2023-04-03T08:24:09;4.43;;;1.10;;
54929;SDS011;40833;53.238;6.576;2023-04-03T08:26:35;4.53;;;1.03;;
54929;SDS011;40833;53.238;6.576;2023-04-03T08:29:01;4.93;;;1.47;;
54929;SDS011;40833;53.238;6.576;2023-04-03T08:31:28;6.33;;;1.33;;
54929;SDS011;40833;53.238;6.576;2023-04-03T08:33:53;4.60;;;1.40;;
54929;SDS011;40833;53.238;6.576;2023-04-03T08:36:23;4.43;;;1.23;;
54929;SDS011;40833;53.238;6.576;2023-04-03T08:38:51;12.13;;;1.37;;
54929;SDS011;40833;53.238;6.576;2023-04-03T08:49:51;4.77;;;1.10;;
54929;SDS011;40833;53.238;6.576;2023-04-03T08:52:44;7.13;;;2.10;;
54929;SDS011;40833;53.238;6.576;2023-04-03T08:55:17;5.10;;;1.97;;
54929;SDS011;40833;53.238;6.576;2023-04-03T08:58:03;6.63;;;1.40;;
54929;SDS011;40833;53.238;6.576;2023-04-03T09:00:47;4.07;;;0.93;;
54929;SDS011;40833;53.238;6.576;2023-04-03T09:03:15;4.10;;;1.10;;
54929;SDS011;40833;53.238;6.576;2023-04-03T09:11:04;3.80;;;0.53;;
54929;SDS011;40833;53.238;6.576;2023-04-03T09:16:59;2.17;;;0.40;;
54929;SDS011;40833;53.238;6.576;2023-04-03T09:24:38;1.38;;;0.40;;
54929;SDS011;40833;53.238;6.576;2023-04-03T09:27:06;3.63;;;0.43;;
54929;SDS011;40833;53.238;6.576;2023-04-03T09:29:36;2.17;;;0.20;;
54929;SDS011;40833;53.238;6.576;2023-04-03T09:32:18;2.83;;;0.40;;
54929;SDS011;40833;53.238;6.576;2023-04-03T09:34:47;2.70;;;0.30;;
54929;SDS011;40833;53.238;6.576;2023-04-03T09:37:33;1.13;;;0.40;;
54929;SDS011;40833;53.238;6.576;2023-04-03T09:39:58;1.67;;;0.30;;
54929;SDS011;40833;53.238;6.576;2023-04-03T09:42:24;1.33;;;0.30;;
54929;SDS011;40833;53.238;6.576;2023-04-03T09:44:55;2.67;;;0.43;;
54929;SDS011;40833;53.238;6.576;2023-04-03T09:50:08;5.00;;;0.73;;
54929;SDS011;40833;53.238;6.576;2023-04-03T09:52:35;1.43;;;0.30;;
54929;SDS011;40833;53.238;6.576;2023-04-03T09:55:06;2.87;;;0.70;;
54929;SDS011;40833;53.238;6.576;2023-04-03T09:59:59;1.40;;;0.50;;
54929;SDS011;40833;53.238;6.576;2023-04-03T10:02:38;1.37;;;0.33;;
54929;SDS011;40833;53.238;6.576;2023-04-03T10:10:39;1.73;;;0.50;;
54929;SDS011;40833;53.238;6.576;2023-04-03T10:15:36;2.13;;;0.37;;
54929;SDS011;40833;53.238;6.576;2023-04-03T10:18:16;3.47;;;0.53;;
54929;SDS011;40833;53.238;6.576;2023-04-03T10:34:47;6.37;;;0.27;;
54929;SDS011;40833;53.238;6.576;2023-04-03T10:39:53;2.87;;;0.33;;
54929;SDS011;40833;53.238;6.576;2023-04-03T10:45:19;3.10;;;0.40;;
54929;SDS011;40833;53.238;6.576;2023-04-03T10:50:29;1.40;;;0.10;;
54929;SDS011;40833;53.238;6.576;2023-04-03T10:53:18;2.20;;;0.40;;
54929;SDS011;40833;53.238;6.576;2023-04-03T10:55:55;0.95;;;0.10;;
54929;SDS011;40833;53.238;6.576;2023-04-03T10:58:34;1.03;;;0.30;;
54929;SDS011;40833;53.238;6.576;2023-04-03T11:01:08;1.33;;;0.40;;
54929;SDS011;40833;53.238;6.576;2023-04-03T11:03:45;1.17;;;0.20;;
54929;SDS011;40833;53.238;6.576;2023-04-03T11:06:17;10.93;;;0.40;;
54929;SDS011;40833;53.238;6.576;2023-04-03T11:08:48;3.17;;;0.23;;
54929;SDS011;40833;53.238;6.576;2023-04-03T11:11:32;0.50;;;0.10;;
54929;SDS011;40833;53.238;6.576;2023-04-03T11:16:47;2.53;;;0.30;;
54929;SDS011;40833;53.238;6.576;2023-04-03T11:19:29;2.43;;;0.30;;
54929;SDS011;40833;53.238;6.576;2023-04-03T11:22:14;3.60;;;0.67;;
54929;SDS011;40833;53.238;6.576;2023-04-03T11:25:37;2.77;;;0.40;;
54929;SDS011;40833;53.238;6.576;2023-04-03T11:27:45;1.33;;;0.20;;
54929;SDS011;40833;53.238;6.576;2023-04-03T11:30:23;2.23;;;0.13;;
54929;SDS011;40833;53.238;6.576;2023-04-03T11:33:03;0.93;;;0.20;;
54929;SDS011;40833;53.238;6.576;2023-04-03T11:35:33;0.90;;;0.10;;
54929;SDS011;40833;53.238;6.576;2023-04-03T11:38:00;2.87;;;0.30;;
54929;SDS011;40833;53.238;6.576;2023-04-03T11:40:31;4.00;;;0.37;;
54929;SDS011;40833;53.238;6.576;2023-04-03T12:03:29;2.33;;;0.30;;
54929;SDS011;40833;53.238;6.576;2023-04-03T12:11:15;2.07;;;0.50;;
54929;SDS011;40833;53.238;6.576;2023-04-03T12:16:26;1.10;;;0.20;;
54929;SDS011;40833;53.238;6.576;2023-04-03T12:37:41;0.77;;;0.10;;
54929;SDS011;40833;53.238;6.576;2023-04-03T12:40:49;1.07;;;0.50;;
54929;SDS011;40833;53.238;6.576;2023-04-03T12:46:15;0.83;;;0.60;;
54929;SDS011;40833;53.238;6.576;2023-04-03T12:51:12;0.70;;;0.20;;
54929;SDS011;40833;53.238;6.576;2023-04-03T12:53:44;2.07;;;0.10;;
54929;SDS011;40833;53.238;6.576;2023-04-03T12:56:24;2.43;;;0.93;;
54929;SDS011;40833;53.238;6.576;2023-04-03T12:58:53;1.80;;;0.40;;
54929;SDS011;40833;53.238;6.576;2023-04-03T13:01:21;0.43;;;0.20;;
54929;SDS011;40833;53.238;6.576;2023-04-03T13:03:49;3.17;;;0.27;;
54929;SDS011;40833;53.238;6.576;2023-04-03T13:06:19;3.90;;;0.30;;
54929;SDS011;40833;53.238;6.576;2023-04-03T13:08:49;1.47;;;0.40;;
54929;SDS011;40833;53.238;6.576;2023-04-03T13:11:22;1.00;;;0.23;;
54929;SDS011;40833;53.238;6.576;2023-04-03T13:13:54;0.90;;;0.20;;
54929;SDS011;40833;53.238;6.576;2023-04-03T13:16:20;2.30;;;0.17;;
54929;SDS011;40833;53.238;6.576;2023-04-03T13:18:50;2.13;;;0.20;;
54929;SDS011;40833;53.238;6.576;2023-04-03T13:21:19;1.25;;;0.22;;
54929;SDS011;40833;53.238;6.576;2023-04-03T13:23:58;2.00;;;0.23;;
54929;SDS011;40833;53.238;6.576;2023-04-03T13:26:27;1.20;;;0.30;;
54929;SDS011;40833;53.238;6.576;2023-04-03T13:28:56;2.67;;;0.20;;
54929;SDS011;40833;53.238;6.576;2023-04-03T13:31:27;0.40;;;0.03;;
54929;SDS011;40833;53.238;6.576;2023-04-03T13:34:10;0.93;;;0.17;;
54929;SDS011;40833;53.238;6.576;2023-04-03T13:36:44;0.87;;;0.23;;
54929;SDS011;40833;53.238;6.576;2023-04-03T13:41:47;0.60;;;0.20;;
54929;SDS011;40833;53.238;6.576;2023-04-03T13:44:33;0.90;;;0.30;;
54929;SDS011;40833;53.238;6.576;2023-04-03T13:47:14;0.47;;;0.13;;
54929;SDS011;40833;53.238;6.576;2023-04-03T13:50:32;1.67;;;0.37;;
54929;SDS011;40833;53.238;6.576;2023-04-03T13:52:43;1.63;;;0.30;;
54929;SDS011;40833;53.238;6.576;2023-04-03T13:55:17;1.93;;;0.40;;
54929;SDS011;40833;53.238;6.576;2023-04-03T13:57:50;2.20;;;0.20;;
54929;SDS011;40833;53.238;6.576;2023-04-03T14:00:40;1.77;;;0.30;;
54929;SDS011;40833;53.238;6.576;2023-04-03T14:05:46;1.13;;;0.20;;
54929;SDS011;40833;53.238;6.576;2023-04-03T14:08:12;1.83;;;0.30;;
54929;SDS011;40833;53.238;6.576;2023-04-03T14:10:38;2.70;;;1.03;;
54929;SDS011;40833;53.238;6.576;2023-04-03T14:13:05;2.30;;;0.30;;
54929;SDS011;40833;53.238;6.576;2023-04-03T14:15:30;0.67;;;0.20;;
54929;SDS011;40833;53.238;6.576;2023-04-03T14:17:57;2.03;;;0.30;;
54929;SDS011;40833;53.238;6.576;2023-04-03T14:20:25;1.93;;;0.30;;
54929;SDS011;40833;53.238;6.576;2023-04-03T14:22:52;2.73;;;0.33;;
54929;SDS011;40833;53.238;6.576;2023-04-03T14:25:19;1.90;;;0.57;;
54929;SDS011;40833;53.238;6.576;2023-04-03T14:27:48;2.27;;;0.40;;
54929;SDS011;40833;53.238;6.576;2023-04-03T14:30:17;1.63;;;0.30;;
54929;SDS011;40833;53.238;6.576;2023-04-03T14:33:03;1.67;;;0.40;;
54929;SDS011;40833;53.238;6.576;2023-04-03T14:35:29;1.03;;;0.30;;
54929;SDS011;40833;53.238;6.576;2023-04-03T14:37:55;2.10;;;0.20;;
54929;SDS011;40833;53.238;6.576;2023-04-03T14:40:23;5.60;;;0.60;;
54929;SDS011;40833;53.238;6.576;2023-04-03T14:42:51;1.07;;;0.20;;
54929;SDS011;40833;53.238;6.576;2023-04-03T14:45:20;1.67;;;0.30;;
54929;SDS011;40833;53.238;6.576;2023-04-03T14:47:47;2.33;;;0.20;;
54929;SDS011;40833;53.238;6.576;2023-04-03T14:50:16;2.90;;;0.37;;
54929;SDS011;40833;53.238;6.576;2023-04-03T14:52:46;5.83;;;0.40;;
54929;SDS011;40833;53.238;6.576;2023-04-03T14:55:16;6.97;;;0.30;;
54929;SDS011;40833;53.238;6.576;2023-04-03T14:57:44;4.23;;;0.63;;
54929;SDS011;40833;53.238;6.576;2023-04-03T15:00:16;2.50;;;0.23;;
54929;SDS011;40833;53.238;6.576;2023-04-03T15:02:44;2.27;;;0.20;;
54929;SDS011;40833;53.238;6.576;2023-04-03T15:05:10;3.63;;;0.20;;
54929;SDS011;40833;53.238;6.576;2023-04-03T15:07:41;1.67;;;0.50;;
54929;SDS011;40833;53.238;6.576;2023-04-03T15:12:44;1.90;;;0.40;;
54929;SDS011;40833;53.238;6.576;2023-04-03T15:15:11;1.07;;;0.20;;
54929;SDS011;40833;53.238;6.576;2023-04-03T15:17:37;1.10;;;0.10;;
54929;SDS011;40833;53.238;6.576;2023-04-03T15:20:05;2.53;;;0.23;;
54929;SDS011;40833;53.238;6.576;2023-04-03T15:22:41;0.63;;;0.20;;
54929;SDS011;40833;53.238;6.576;2023-04-03T15:25:07;0.40;;;0.20;;
54929;SDS011;40833;53.238;6.576;2023-04-03T15:27:35;1.47;;;0.20;;
54929;SDS011;40833;53.238;6.576;2023-04-03T15:30:02;1.50;;;0.53;;
54929;SDS011;40833;53.238;6.576;2023-04-03T15:32:29;2.77;;;0.10;;
54929;SDS011;40833;53.238;6.576;2023-04-03T15:34:55;2.50;;;0.30;;
54929;SDS011;40833;53.238;6.576;2023-04-03T15:37:21;2.27;;;0.20;;
54929;SDS011;40833;53.238;6.576;2023-04-03T15:39:47;0.73;;;0.10;;
54929;SDS011;40833;53.238;6.576;2023-04-03T15:42:13;1.07;;;0.30;;
54929;SDS011;40833;53.238;6.576;2023-04-03T15:44:39;1.93;;;0.53;;
54929;SDS011;40833;53.238;6.576;2023-04-03T15:47:05;1.30;;;0.20;;
54929;SDS011;40833;53.238;6.576;2023-04-03T15:49:32;1.83;;;0.20;;
54929;SDS011;40833;53.238;6.576;2023-04-03T15:51:59;1.73;;;0.40;;
54929;SDS011;40833;53.238;6.576;2023-04-03T15:54:24;2.33;;;0.40;;
54929;SDS011;40833;53.238;6.576;2023-04-03T15:56:51;1.33;;;0.20;;
54929;SDS011;40833;53.238;6.576;2023-04-03T15:59:17;1.57;;;0.30;;
54929;SDS011;40833;53.238;6.576;2023-04-03T16:01:43;1.00;;;0.30;;
54929;SDS011;40833;53.238;6.576;2023-04-03T16:04:09;2.23;;;0.30;;
54929;SDS011;40833;53.238;6.576;2023-04-03T16:06:36;1.53;;;0.30;;
54929;SDS011;40833;53.238;6.576;2023-04-03T16:09:03;2.30;;;0.20;;
54929;SDS011;40833;53.238;6.576;2023-04-03T16:11:29;3.37;;;0.10;;
54929;SDS011;40833;53.238;6.576;2023-04-03T16:13:55;1.17;;;0.40;;
54929;SDS011;40833;53.238;6.576;2023-04-03T16:16:21;1.90;;;0.40;;
54929;SDS011;40833;53.238;6.576;2023-04-03T16:18:48;2.47;;;0.40;;
54929;SDS011;40833;53.238;6.576;2023-04-03T16:21:15;1.33;;;0.30;;
54929;SDS011;40833;53.238;6.576;2023-04-03T16:23:42;1.83;;;0.30;;
54929;SDS011;40833;53.238;6.576;2023-04-03T16:26:08;2.67;;;0.70;;
54929;SDS011;40833;53.238;6.576;2023-04-03T16:28:34;1.57;;;0.33;;
54929;SDS011;40833;53.238;6.576;2023-04-03T16:31:00;2.93;;;0.20;;
54929;SDS011;40833;53.238;6.576;2023-04-03T16:33:27;1.10;;;0.27;;
54929;SDS011;40833;53.238;6.576;2023-04-03T16:35:54;3.93;;;0.40;;
54929;SDS011;40833;53.238;6.576;2023-04-03T16:38:20;2.10;;;0.40;;
54929;SDS011;40833;53.238;6.576;2023-04-03T16:40:47;2.67;;;0.70;;
54929;SDS011;40833;53.238;6.576;2023-04-03T16:43:13;4.43;;;1.07;;
54929;SDS011;40833;53.238;6.576;2023-04-03T16:45:40;1.13;;;0.33;;
54929;SDS011;40833;53.238;6.576;2023-04-03T16:48:06;2.47;;;0.43;;
54929;SDS011;40833;53.238;6.576;2023-04-03T16:50:31;1.90;;;0.30;;
54929;SDS011;40833;53.238;6.576;2023-04-03T16:52:57;2.10;;;0.53;;
54929;SDS011;40833;53.238;6.576;2023-04-03T16:55:23;3.03;;;0.63;;
54929;SDS011;40833;53.238;6.576;2023-04-03T16:57:49;3.43;;;0.70;;